createdAt,value
2023-04-14T00:01:24.769Z,76.80
2023-04-14T00:03:54.502Z,77.60
2023-04-14T00:06:22.940Z,77.80
2023-04-14T00:08:51.296Z,77.60
2023-04-14T00:11:19.565Z,77.80
2023-04-14T00:13:47.845Z,77.60
2023-04-14T00:16:16.124Z,77.60
2023-04-14T00:18:44.396Z,77.50
2023-04-14T00:21:14.352Z,77.70
2023-04-14T00:23:42.590Z,78.00
2023-04-14T00:26:10.816Z,78.10
2023-04-14T00:28:39.192Z,78.00
2023-04-14T00:31:08.288Z,78.20
2023-04-14T00:33:36.584Z,78.10
2023-04-14T00:36:05.669Z,78.30
2023-04-14T00:38:35.305Z,78.00
2023-04-14T00:41:03.507Z,78.20
2023-04-14T00:43:31.779Z,78.40
2023-04-14T00:46:00.840Z,78.30
2023-04-14T00:48:29.251Z,78.40
2023-04-14T00:50:57.575Z,78.40
2023-04-14T00:53:27.374Z,78.50
2023-04-14T00:55:57.049Z,78.60
2023-04-14T00:58:26.437Z,78.70
2023-04-14T01:00:55.665Z,78.50
2023-04-14T01:03:25.376Z,78.80
2023-04-14T01:05:53.784Z,78.90
2023-04-14T01:08:23.036Z,78.80
2023-04-14T01:11:18.033Z,78.90
2023-04-14T01:13:55.590Z,79.00
2023-04-14T01:16:31.471Z,79.00
2023-04-14T01:19:17.505Z,79.10
2023-04-14T01:21:52.202Z,79.00
2023-04-14T01:24:38.889Z,79.10
2023-04-14T01:27:33.876Z,79.60
2023-04-14T01:30:17.696Z,79.50
2023-04-14T01:32:49.856Z,79.30
2023-04-14T01:35:22.619Z,79.00
2023-04-14T01:37:55.628Z,78.80
2023-04-14T01:40:25.989Z,78.90
2023-04-14T01:43:02.472Z,78.80
2023-04-14T01:45:38.187Z,79.10
2023-04-14T01:48:08.785Z,79.40
2023-04-14T01:50:38.650Z,79.40
2023-04-14T01:53:08.580Z,79.30
2023-04-14T01:55:39.961Z,79.30
2023-04-14T01:58:09.713Z,79.50
2023-04-14T02:00:40.956Z,79.40
2023-04-14T02:03:11.734Z,79.40
2023-04-14T02:05:42.368Z,79.40
2023-04-14T02:08:13.860Z,79.40
2023-04-14T02:10:47.049Z,79.40
2023-04-14T02:13:16.782Z,79.40
2023-04-14T02:15:45.405Z,79.30
2023-04-14T02:18:16.957Z,79.60
2023-04-14T02:20:48.114Z,79.80
2023-04-14T02:23:16.746Z,79.90
2023-04-14T02:25:54.047Z,79.30
2023-04-14T02:28:26.296Z,79.20
2023-04-14T02:30:57.770Z,79.40
2023-04-14T02:33:32.746Z,79.50
2023-04-14T02:36:05.665Z,79.70
2023-04-14T02:38:39.582Z,79.80
2023-04-14T02:41:11.862Z,79.50
2023-04-14T02:43:48.448Z,79.60
2023-04-14T02:46:21.100Z,79.70
2023-04-14T02:48:53.010Z,79.70
2023-04-14T02:51:22.407Z,79.60
2023-04-14T02:53:51.572Z,79.70
2023-04-14T02:56:21.248Z,79.90
2023-04-14T02:58:51.387Z,80.10
2023-04-14T03:01:20.753Z,80.20
2023-04-14T03:03:51.335Z,80.50
2023-04-14T03:06:19.711Z,80.50
2023-04-14T03:08:49.185Z,80.60
2023-04-14T03:11:18.286Z,80.80
2023-04-14T03:13:48.150Z,80.80
2023-04-14T03:16:20.504Z,81.00
2023-04-14T03:18:51.860Z,81.20
2023-04-14T03:21:22.046Z,81.10
2023-04-14T03:23:55.925Z,81.40
2023-04-14T03:26:26.771Z,81.50
2023-04-14T03:28:58.231Z,81.90
2023-04-14T03:31:34.761Z,81.40
2023-04-14T03:34:07.703Z,81.60
2023-04-14T03:36:37.861Z,81.80
2023-04-14T03:39:08.151Z,81.90
2023-04-14T03:41:38.745Z,81.60
2023-04-14T03:44:14.617Z,81.80
2023-04-14T03:46:42.954Z,81.40
2023-04-14T03:49:16.922Z,81.20
2023-04-14T03:51:48.119Z,81.30
2023-04-14T03:54:17.506Z,81.80
2023-04-14T03:56:47.714Z,81.70
2023-04-14T03:59:19.274Z,81.50
2023-04-14T04:01:48.855Z,81.20
2023-04-14T04:04:19.859Z,81.10
2023-04-14T04:06:50.021Z,81.10
2023-04-14T04:09:19.616Z,81.20
2023-04-14T04:11:50.485Z,81.40
2023-04-14T04:14:22.576Z,81.80
2023-04-14T04:16:52.761Z,81.80
2023-04-14T04:19:24.300Z,82.00
2023-04-14T04:21:57.385Z,81.80
2023-04-14T04:24:30.283Z,81.80
2023-04-14T04:26:59.351Z,81.60
2023-04-14T04:29:28.351Z,81.90
2023-04-14T04:31:57.017Z,82.20
2023-04-14T04:34:28.329Z,81.50
2023-04-14T04:36:57.019Z,81.60
2023-04-14T04:39:25.510Z,81.30
2023-04-14T04:42:03.787Z,81.70
2023-04-14T04:44:33.649Z,82.10
2023-04-14T04:47:02.532Z,82.50
2023-04-14T04:49:32.173Z,82.10
2023-04-14T04:52:00.422Z,82.40
2023-04-14T04:54:28.718Z,82.30
2023-04-14T04:56:57.820Z,82.20
2023-04-14T04:59:26.058Z,81.40
2023-04-14T05:01:54.621Z,81.10
2023-04-14T05:04:22.958Z,81.30
2023-04-14T05:06:52.556Z,81.60
2023-04-14T05:09:20.820Z,81.50
2023-04-14T05:11:49.077Z,81.60
2023-04-14T05:14:17.353Z,81.90
2023-04-14T05:16:45.596Z,81.80
2023-04-14T05:19:13.913Z,82.10
2023-04-14T05:21:42.331Z,82.50
2023-04-14T05:24:11.904Z,82.70
2023-04-14T05:29:11.641Z,82.90
2023-04-14T05:31:40.011Z,82.20
2023-04-14T05:34:08.331Z,82.20
2023-04-14T05:36:36.646Z,82.70
2023-04-14T05:39:04.987Z,83.50
2023-04-14T05:41:34.656Z,83.90
2023-04-14T05:44:04.588Z,83.80
2023-04-14T05:46:33.173Z,84.30
2023-04-14T05:49:01.789Z,83.40
2023-04-14T05:51:30.388Z,82.80
2023-04-14T05:53:59.060Z,82.50
2023-04-14T05:56:27.496Z,82.30
2023-04-14T05:58:57.069Z,82.20
2023-04-14T06:01:25.440Z,81.70
2023-04-14T06:03:53.940Z,81.00
2023-04-14T06:06:22.487Z,80.50
2023-04-14T06:08:51.038Z,79.90
2023-04-14T06:11:19.274Z,79.70
2023-04-14T06:13:47.478Z,79.00
2023-04-14T06:16:17.191Z,78.30
2023-04-14T06:18:45.494Z,78.70
2023-04-14T06:21:13.832Z,77.70
2023-04-14T06:23:42.088Z,78.50
2023-04-14T06:26:10.567Z,77.30
2023-04-14T06:28:38.903Z,77.20
2023-04-14T06:31:07.326Z,76.80
2023-04-14T06:33:36.903Z,76.50
2023-04-14T06:36:05.553Z,75.40
2023-04-14T06:38:33.809Z,75.70
2023-04-14T06:41:02.169Z,76.10
2023-04-14T06:43:30.377Z,76.20
2023-04-14T06:45:58.687Z,76.10
2023-04-14T06:48:27.391Z,74.90
2023-04-14T06:50:57.977Z,75.10
2023-04-14T06:53:26.836Z,74.70
2023-04-14T06:56:00.526Z,75.40
2023-04-14T06:58:29.754Z,74.70
2023-04-14T07:00:58.335Z,73.80
2023-04-14T07:03:27.278Z,74.40
2023-04-14T07:06:03.531Z,74.30
2023-04-14T07:08:32.976Z,74.90
2023-04-14T07:11:02.168Z,74.10
2023-04-14T07:13:30.724Z,73.10
2023-04-14T07:15:59.189Z,72.90
2023-04-14T07:18:27.558Z,71.60
2023-04-14T07:20:57.245Z,72.50
2023-04-14T07:23:25.736Z,72.00
2023-04-14T07:25:55.111Z,71.10
2023-04-14T07:28:24.862Z,70.30
2023-04-14T07:30:53.816Z,70.40
2023-04-14T07:33:23.575Z,70.50
2023-04-14T07:36:02.070Z,70.20
2023-04-14T07:38:32.872Z,69.00
2023-04-14T07:41:04.096Z,69.30
2023-04-14T07:43:35.160Z,68.40
2023-04-14T07:46:05.611Z,67.40
2023-04-14T07:48:34.907Z,67.70
2023-04-14T07:51:04.330Z,67.20
2023-04-14T07:53:34.766Z,66.90
2023-04-14T07:56:03.229Z,66.10
2023-04-14T07:58:31.626Z,67.10
2023-04-14T08:00:59.829Z,63.60
2023-04-14T08:03:28.250Z,64.70
2023-04-14T08:05:57.530Z,64.30
2023-04-14T08:08:26.181Z,64.00
2023-04-14T08:10:55.783Z,63.90
2023-04-14T08:13:24.104Z,63.30
2023-04-14T08:15:52.496Z,63.60
2023-04-14T08:18:21.878Z,61.80
2023-04-14T08:20:50.170Z,62.80
2023-04-14T08:23:18.540Z,62.00
2023-04-14T08:25:47.240Z,61.80
2023-04-14T08:28:17.336Z,63.00
2023-04-14T08:30:45.623Z,61.50
2023-04-14T08:33:13.886Z,61.50
2023-04-14T08:35:43.271Z,62.40
2023-04-14T08:38:12.246Z,61.10
2023-04-14T08:40:42.363Z,60.50
2023-04-14T08:43:13.208Z,59.10
2023-04-14T08:45:45.532Z,60.80
2023-04-14T08:48:17.615Z,60.50
2023-04-14T08:50:59.362Z,59.70
2023-04-14T08:53:28.636Z,59.30
2023-04-14T08:55:58.511Z,58.80
2023-04-14T08:58:27.067Z,58.10
2023-04-14T09:00:57.474Z,57.90
2023-04-14T09:03:26.779Z,57.20
2023-04-14T09:05:55.811Z,56.50
2023-04-14T09:08:24.703Z,54.00
2023-04-14T09:10:53.044Z,54.70
2023-04-14T09:13:23.762Z,58.10
2023-04-14T09:15:52.216Z,56.50
2023-04-14T09:18:22.257Z,56.10
2023-04-14T09:21:32.912Z,57.50
2023-04-14T09:23:41.754Z,56.30
2023-04-14T09:26:10.755Z,56.30
2023-04-14T09:28:39.408Z,54.70
2023-04-14T09:31:08.353Z,55.20
2023-04-14T09:33:45.087Z,55.00
2023-04-14T09:36:20.839Z,55.00
2023-04-14T09:38:50.695Z,52.90
2023-04-14T09:41:21.758Z,53.70
2023-04-14T09:43:50.202Z,52.90
2023-04-14T09:46:18.537Z,53.70
2023-04-14T09:48:56.428Z,55.20
2023-04-14T09:51:28.633Z,51.20
2023-04-14T09:54:02.899Z,51.70
2023-04-14T09:56:31.622Z,50.00
2023-04-14T09:59:02.390Z,49.60
2023-04-14T10:01:34.299Z,51.00
2023-04-14T10:04:04.810Z,51.60
2023-04-14T10:06:33.038Z,50.50
2023-04-14T10:09:02.199Z,49.40
2023-04-14T10:11:32.908Z,50.40
2023-04-14T10:14:03.825Z,50.00
2023-04-14T10:16:32.735Z,48.00
2023-04-14T10:19:02.246Z,47.80
2023-04-14T10:21:32.515Z,48.20
2023-04-14T10:24:01.722Z,48.50
2023-04-14T10:26:30.770Z,46.50
2023-04-14T10:28:59.591Z,45.10
2023-04-14T10:31:32.913Z,46.30
2023-04-14T10:34:10.825Z,47.60
2023-04-14T10:36:41.507Z,47.60
2023-04-14T10:39:11.464Z,44.20
2023-04-14T10:41:50.721Z,47.50
2023-04-14T10:44:26.987Z,47.70
2023-04-14T10:46:56.685Z,47.90
2023-04-14T10:49:31.482Z,46.20
2023-04-14T10:52:03.373Z,48.30
2023-04-14T10:54:50.839Z,48.60
2023-04-14T10:57:20.130Z,49.20
2023-04-14T10:59:49.123Z,47.40
2023-04-14T11:02:25.264Z,48.90
2023-04-14T11:05:05.166Z,47.00
2023-04-14T11:07:40.574Z,45.60
2023-04-14T11:10:29.909Z,45.30
2023-04-14T11:13:03.857Z,47.30
2023-04-14T11:15:52.025Z,45.90
2023-04-14T11:18:33.213Z,46.90
2023-04-14T11:21:06.559Z,44.80
2023-04-14T11:23:38.547Z,46.60
2023-04-14T11:26:08.753Z,43.90
2023-04-14T11:28:38.893Z,45.80
2023-04-14T11:31:09.812Z,43.30
2023-04-14T11:33:41.654Z,43.60
2023-04-14T11:36:12.786Z,43.10
2023-04-14T11:38:43.921Z,45.20
2023-04-14T11:41:15.972Z,45.10
2023-04-14T11:43:46.762Z,44.60
2023-04-14T11:46:15.580Z,44.10
2023-04-14T11:48:43.872Z,42.50
2023-04-14T11:51:12.179Z,42.50
2023-04-14T11:53:43.198Z,41.80
2023-04-14T11:56:12.926Z,44.30
2023-04-14T11:58:41.604Z,43.30
2023-04-14T12:01:10.727Z,43.80
2023-04-14T12:03:39.496Z,43.40
2023-04-14T12:06:08.701Z,42.90
2023-04-14T12:08:37.170Z,43.20
2023-04-14T12:11:17.517Z,42.40
2023-04-14T12:13:47.581Z,42.40
2023-04-14T12:16:18.040Z,42.60
2023-04-14T12:18:46.495Z,42.00
2023-04-14T12:21:19.665Z,43.40
2023-04-14T12:23:49.852Z,42.70
2023-04-14T12:26:21.379Z,42.90
2023-04-14T12:28:57.436Z,41.80
2023-04-14T12:31:30.505Z,41.20
2023-04-14T12:34:04.024Z,43.10
2023-04-14T12:36:48.714Z,40.30
2023-04-14T12:39:18.597Z,42.40
2023-04-14T12:41:48.412Z,41.80
2023-04-14T12:44:18.415Z,42.50
2023-04-14T12:46:49.927Z,41.80
2023-04-14T12:49:37.032Z,41.10
2023-04-14T12:52:08.112Z,42.20
2023-04-14T12:54:51.878Z,43.20
2023-04-14T12:57:23.201Z,44.10
2023-04-14T12:59:52.014Z,42.60
2023-04-14T13:02:20.459Z,42.50
2023-04-14T13:04:48.915Z,42.10
2023-04-14T13:07:17.227Z,44.80
2023-04-14T13:09:45.466Z,43.90
2023-04-14T13:12:13.818Z,43.90
2023-04-14T13:14:43.487Z,46.30
2023-04-14T13:17:13.006Z,45.10
2023-04-14T13:19:41.548Z,45.80
2023-04-14T13:22:09.824Z,44.40
2023-04-14T13:24:38.082Z,43.60
2023-04-14T13:27:06.841Z,43.60
2023-04-14T13:29:35.716Z,42.50
2023-04-14T13:32:09.930Z,43.30
2023-04-14T13:34:38.875Z,43.00
2023-04-14T13:37:07.497Z,42.40
2023-04-14T13:39:35.829Z,42.80
2023-04-14T13:42:04.548Z,42.10
2023-04-14T13:44:34.420Z,43.10
2023-04-14T13:47:04.178Z,43.80
2023-04-14T13:49:32.559Z,43.60
2023-04-14T13:52:00.793Z,45.30
2023-04-14T13:54:29.088Z,45.20
2023-04-14T13:56:57.741Z,44.40
2023-04-14T13:59:26.008Z,44.90
2023-04-14T14:01:54.414Z,44.40
2023-04-14T14:04:24.295Z,44.30
2023-04-14T14:06:52.655Z,43.30
2023-04-14T14:09:21.154Z,43.00
2023-04-14T14:11:49.451Z,43.20
2023-04-14T14:14:17.964Z,44.00
2023-04-14T14:16:46.326Z,43.40
2023-04-14T14:19:17.261Z,45.00
2023-04-14T14:21:46.744Z,45.40
2023-04-14T14:24:15.058Z,45.00
2023-04-14T14:26:43.379Z,43.70
2023-04-14T14:29:11.633Z,42.60
2023-04-14T14:31:40.137Z,43.10
2023-04-14T14:34:09.567Z,43.10
2023-04-14T14:36:37.948Z,43.00
2023-04-14T14:39:09.062Z,43.70
2023-04-14T14:41:38.050Z,43.60
2023-04-14T14:44:06.856Z,44.20
2023-04-14T14:46:35.488Z,44.90
2023-04-14T14:49:03.908Z,44.10
2023-04-14T14:51:32.401Z,43.20
2023-04-14T14:54:09.319Z,44.90
2023-04-14T14:56:39.501Z,44.70
2023-04-14T14:59:08.498Z,44.50
2023-04-14T15:01:37.612Z,43.70
2023-04-14T15:04:06.494Z,44.40
2023-04-14T15:06:35.946Z,43.50
2023-04-14T15:09:05.449Z,45.10
2023-04-14T15:11:33.827Z,45.40
2023-04-14T15:14:03.889Z,46.20
2023-04-14T15:16:32.560Z,44.50
2023-04-14T15:19:00.911Z,45.90
2023-04-14T15:21:29.290Z,44.10
2023-04-14T15:23:57.653Z,45.10
2023-04-14T15:26:25.877Z,44.40
2023-04-14T15:28:54.328Z,44.50
2023-04-14T15:31:24.137Z,44.80
2023-04-14T15:33:52.480Z,44.60
2023-04-14T15:36:20.766Z,44.80
2023-04-14T15:38:50.117Z,45.00
2023-04-14T15:41:18.487Z,44.20
2023-04-14T15:43:47.368Z,45.30
2023-04-14T15:46:16.475Z,45.00
2023-04-14T15:48:46.362Z,45.90
2023-04-14T15:51:14.672Z,45.40
2023-04-14T15:53:43.099Z,46.70
2023-04-14T15:56:11.652Z,46.30
2023-04-14T15:58:39.889Z,46.20
2023-04-14T16:01:08.728Z,45.00
2023-04-14T16:03:37.994Z,46.20
2023-04-14T16:06:08.279Z,45.70
2023-04-14T16:08:37.250Z,45.50
2023-04-14T16:11:05.631Z,44.80
2023-04-14T16:13:33.900Z,44.70
2023-04-14T16:16:02.287Z,45.90
2023-04-14T16:18:30.677Z,45.10
2023-04-14T16:20:58.974Z,45.60
2023-04-14T16:23:29.153Z,46.20
2023-04-14T16:25:57.734Z,45.20
2023-04-14T16:28:27.000Z,46.30
2023-04-14T16:30:55.433Z,47.30
2023-04-14T16:33:24.662Z,46.90
2023-04-14T16:35:52.982Z,45.40
2023-04-14T16:38:21.274Z,46.10
2023-04-14T16:40:57.407Z,47.20
2023-04-14T16:43:28.188Z,47.50
2023-04-14T16:46:03.271Z,47.60
2023-04-14T16:48:32.551Z,46.90
2023-04-14T16:51:05.920Z,46.40
2023-04-14T16:53:34.728Z,46.10
2023-04-14T16:56:08.695Z,46.20
2023-04-14T16:58:37.955Z,46.40
2023-04-14T17:01:07.402Z,45.60
2023-04-14T17:03:36.759Z,45.70
2023-04-14T17:06:05.936Z,46.00
2023-04-14T17:08:34.812Z,45.70
2023-04-14T17:11:03.448Z,46.10
2023-04-14T17:13:33.180Z,45.30
2023-04-14T17:16:08.421Z,46.00
2023-04-14T17:18:37.662Z,46.10
2023-04-14T17:21:07.048Z,47.20
2023-04-14T17:23:37.631Z,47.70
2023-04-14T17:26:06.710Z,48.30
2023-04-14T17:28:36.457Z,47.40
2023-04-14T17:31:12.651Z,48.20
2023-04-14T17:33:41.945Z,48.40
2023-04-14T17:36:12.599Z,49.20
2023-04-14T17:38:42.084Z,49.40
2023-04-14T17:41:12.294Z,49.80
2023-04-14T17:43:42.667Z,50.30
2023-04-14T17:46:11.788Z,49.80
2023-04-14T17:48:40.406Z,49.90
2023-04-14T17:51:08.785Z,50.60
2023-04-14T17:53:37.577Z,50.30
2023-04-14T17:56:06.599Z,50.70
2023-04-14T17:58:34.952Z,50.80
2023-04-14T18:01:05.808Z,51.20
2023-04-14T18:03:34.708Z,51.30
2023-04-14T18:06:03.015Z,52.50
2023-04-14T18:08:31.378Z,54.90
2023-04-14T18:11:00.796Z,56.50
2023-04-14T18:13:29.866Z,55.90
2023-04-14T18:15:58.158Z,58.20
2023-04-14T18:18:28.549Z,57.30
2023-04-14T18:20:57.310Z,57.70
2023-04-14T18:23:25.662Z,59.90
2023-04-14T18:28:32.301Z,59.80
2023-04-14T18:31:00.614Z,60.90
2023-04-14T18:33:30.491Z,62.10
2023-04-14T18:36:00.436Z,63.30
2023-04-14T18:38:28.873Z,60.60
2023-04-14T18:41:03.538Z,61.40
2023-04-14T18:43:32.580Z,62.90
2023-04-14T18:46:01.357Z,62.60
2023-04-14T18:48:31.784Z,62.70
2023-04-14T18:51:02.484Z,62.50
2023-04-14T18:53:31.797Z,63.60
2023-04-14T18:56:00.662Z,63.80
2023-04-14T18:58:30.283Z,65.00
2023-04-14T19:00:58.708Z,66.40
2023-04-14T19:03:27.343Z,66.20
2023-04-14T19:05:57.191Z,65.30
2023-04-14T19:08:25.926Z,66.20
2023-04-14T19:10:54.213Z,65.60
2023-04-14T19:13:24.098Z,66.10
2023-04-14T19:15:52.596Z,67.20
2023-04-14T19:18:20.996Z,67.90
2023-04-14T19:20:49.636Z,67.10
2023-04-14T19:23:19.470Z,68.30
2023-04-14T19:25:47.893Z,68.20
2023-04-14T19:28:18.057Z,67.90
2023-04-14T19:30:46.724Z,68.10
2023-04-14T19:33:15.588Z,67.90
2023-04-14T19:35:45.230Z,67.60
2023-04-14T19:38:13.739Z,66.70
2023-04-14T19:40:49.692Z,67.10
2023-04-14T19:43:18.601Z,67.60
2023-04-14T19:45:53.932Z,67.20
2023-04-14T19:48:24.246Z,67.20
2023-04-14T19:50:54.396Z,67.60
2023-04-14T19:53:23.626Z,67.40
2023-04-14T19:55:55.896Z,68.60
2023-04-14T19:58:26.671Z,68.60
2023-04-14T20:00:57.104Z,69.50
2023-04-14T20:03:26.869Z,69.40
2023-04-14T20:05:56.785Z,69.00
2023-04-14T20:08:26.518Z,69.30
2023-04-14T20:10:56.416Z,69.80
2023-04-14T20:13:27.583Z,69.60
2023-04-14T20:15:56.233Z,69.00
2023-04-14T20:18:26.057Z,68.80
2023-04-14T20:20:55.280Z,68.80
2023-04-14T20:23:23.977Z,68.30
2023-04-14T20:25:53.054Z,67.70
2023-04-14T20:28:23.266Z,67.00
2023-04-14T20:30:54.515Z,65.60
2023-04-14T20:33:23.607Z,65.20
2023-04-14T20:35:53.959Z,64.80
2023-04-14T20:38:23.561Z,64.60
2023-04-14T20:40:52.051Z,64.50
2023-04-14T20:43:20.686Z,64.40
2023-04-14T20:45:52.666Z,64.50
2023-04-14T20:48:21.502Z,64.60
2023-04-14T20:50:50.480Z,64.60
2023-04-14T20:53:21.166Z,64.90
2023-04-14T20:55:49.547Z,64.90
2023-04-14T20:58:18.383Z,64.80
2023-04-14T21:00:46.772Z,64.30
2023-04-14T21:03:17.213Z,64.30
2023-04-14T21:05:46.280Z,64.50
2023-04-14T21:08:14.547Z,64.70
2023-04-14T21:11:14.276Z,64.70
2023-04-14T21:15:29.030Z,64.90
2023-04-14T21:16:19.451Z,64.90
2023-04-14T21:18:49.121Z,64.60
2023-04-14T21:21:17.937Z,64.60
2023-04-14T21:23:46.277Z,65.20
2023-04-14T21:26:14.556Z,65.30
2023-04-14T21:28:43.032Z,65.50
2023-04-14T21:31:11.621Z,65.80
2023-04-14T21:33:41.679Z,65.70
2023-04-14T21:36:11.839Z,66.10
2023-04-14T21:38:40.343Z,65.80
2023-04-14T21:41:09.750Z,65.90
2023-04-14T21:43:39.572Z,66.00
2023-04-14T21:46:08.106Z,66.00
2023-04-14T21:48:36.411Z,66.70
2023-04-14T21:51:05.212Z,66.20
2023-04-14T21:53:35.177Z,66.50
2023-04-14T21:56:09.796Z,66.30
2023-04-14T21:58:40.351Z,66.20
2023-04-14T22:01:09.852Z,66.70
2023-04-14T22:03:40.608Z,67.00
2023-04-14T22:06:09.986Z,67.00
2023-04-14T22:08:40.625Z,67.40
2023-04-14T22:11:09.099Z,67.10
2023-04-14T22:13:37.493Z,67.60
2023-04-14T22:16:06.502Z,68.00
2023-04-14T22:18:35.928Z,67.80
2023-04-14T22:21:04.829Z,67.30
2023-04-14T22:23:33.598Z,67.00
2023-04-14T22:26:03.707Z,67.00
2023-04-14T22:28:32.071Z,67.60
2023-04-14T22:31:00.449Z,67.70
2023-04-14T22:33:28.789Z,68.10
2023-04-14T22:35:57.139Z,68.20
2023-04-14T22:38:25.511Z,68.90
2023-04-14T22:40:53.766Z,69.30
2023-04-14T22:43:23.510Z,69.20
2023-04-14T22:45:52.483Z,69.30
2023-04-14T22:48:20.890Z,68.60
2023-04-14T22:50:49.154Z,69.00
2023-04-14T22:53:17.422Z,68.80
2023-04-14T22:55:45.723Z,68.80
2023-04-14T22:58:16.868Z,68.90
2023-04-14T23:00:48.384Z,69.20
2023-04-14T23:03:17.651Z,69.30
2023-04-14T23:05:46.113Z,69.20
2023-04-14T23:08:14.505Z,69.50
2023-04-14T23:10:43.012Z,69.80
2023-04-14T23:13:11.257Z,70.00
2023-04-14T23:15:39.466Z,69.60
2023-04-14T23:18:09.354Z,69.20
2023-04-14T23:20:39.027Z,69.90
2023-04-14T23:23:11.989Z,69.20
2023-04-14T23:25:40.318Z,69.00
2023-04-14T23:28:09.197Z,69.00
2023-04-14T23:30:38.030Z,69.40
2023-04-14T23:33:08.541Z,69.50
2023-04-14T23:35:38.779Z,69.10
2023-04-14T23:38:07.193Z,68.90
2023-04-14T23:40:36.246Z,69.40
2023-04-14T23:43:05.093Z,69.40
2023-04-14T23:45:37.225Z,69.10
2023-04-14T23:48:06.576Z,69.40
2023-04-14T23:50:59.718Z,69.50
2023-04-14T23:53:25.558Z,69.90
2023-04-14T23:55:53.909Z,69.50
2023-04-14T23:58:26.721Z,69.30
